Time;durP1;ratioP1;P1;durP2;ratioP2;P2;SDS_P1;SDS_P2;PMS_P1;PMS_P2;Temp;Humidity;BMP_temperature;BMP_pressure;BME280_temperature;BME280_humidity;BME280_pressure;Samples;Min_cycle;Max_cycle;Signal;HPM_P1;HPM_P2
2023/05/29 00:01:41;;;;;;;13.15;2.97;;;11.00;99.90;;;;;;5043140;28;20064;-59
2023/05/29 00:04:07;;;;;;;13.75;3.65;;;10.90;99.90;;;;;;5044072;28;20091;-53
2023/05/29 00:06:32;;;;;;;17.05;3.97;;;10.90;99.90;;;;;;5044287;28;20049;-59
2023/05/29 00:08:58;;;;;;;20.30;3.78;;;10.90;99.90;;;;;;5043241;28;20037;-55
2023/05/29 00:11:23;;;;;;;15.20;3.00;;;10.90;99.90;;;;;;5044329;28;20033;-59
2023/05/29 00:13:49;;;;;;;17.30;3.05;;;10.90;99.90;;;;;;5026489;28;20075;-61
2023/05/29 00:16:15;;;;;;;16.52;3.60;;;11.10;99.90;;;;;;5043413;28;20053;-52
2023/05/29 00:18:45;;;;;;;16.98;3.30;;;10.90;99.90;;;;;;5043850;28;20090;-60
2023/05/29 00:21:14;;;;;;;17.25;3.20;;;10.70;99.90;;;;;;5044010;28;20040;-58
2023/05/29 00:23:40;;;;;;;14.15;2.95;;;10.70;99.90;;;;;;5043825;28;20037;-59
2023/05/29 00:26:06;;;;;;;20.30;3.28;;;10.70;99.90;;;;;;5043608;28;20525;-56
2023/05/29 00:28:31;;;;;;;20.65;3.63;;;10.70;99.90;;;;;;5043938;28;20052;-58
2023/05/29 00:30:57;;;;;;;19.73;3.38;;;10.70;99.90;;;;;;5025200;28;20059;-60
2023/05/29 00:33:22;;;;;;;19.83;4.03;;;10.70;99.90;;;;;;5043510;28;20037;-58
2023/05/29 00:35:48;;;;;;;17.58;3.40;;;10.70;99.90;;;;;;5043760;28;20040;-56
2023/05/29 00:38:14;;;;;;;17.10;3.40;;;10.60;99.90;;;;;;5043743;28;20163;-59
2023/05/29 00:40:40;;;;;;;18.02;3.50;;;10.70;99.90;;;;;;5029758;28;20147;-50
2023/05/29 00:43:05;;;;;;;14.70;3.15;;;10.70;99.90;;;;;;5047854;28;20206;-61
2023/05/29 00:45:35;;;;;;;18.17;3.28;;;10.60;99.90;;;;;;5047956;28;20519;-58
2023/05/29 00:48:05;;;;;;;14.70;3.20;;;10.60;99.90;;;;;;5047665;28;20048;-54
2023/05/29 00:50:31;;;;;;;17.02;3.92;;;10.60;99.90;;;;;;5029240;28;20132;-59
2023/05/29 00:52:59;;;;;;;17.17;3.53;;;10.60;99.90;;;;;;5048002;28;20187;-52
2023/05/29 00:55:26;;;;;;;14.73;2.92;;;10.60;99.90;;;;;;5048230;28;20087;-60
2023/05/29 00:57:52;;;;;;;20.55;3.40;;;10.50;99.90;;;;;;5047116;28;20048;-53
2023/05/29 01:00:18;;;;;;;19.95;3.50;;;10.50;99.90;;;;;;5047800;28;20037;-60
2023/05/29 01:02:45;;;;;;;16.38;3.70;;;10.50;99.90;;;;;;5046834;28;20044;-57
2023/05/29 01:05:12;;;;;;;15.85;3.50;;;10.50;99.90;;;;;;5046584;28;20045;-55
2023/05/29 01:07:38;;;;;;;16.15;3.45;;;10.50;99.90;;;;;;5047488;28;20412;-58
2023/05/29 01:10:05;;;;;;;17.55;3.65;;;10.40;99.90;;;;;;5047382;28;20088;-58
2023/05/29 01:12:38;;;;;;;17.40;3.50;;;10.50;99.90;;;;;;5111200;22;20057;-56
2023/05/29 01:15:22;;;;;;;17.48;3.03;;;10.40;99.90;;;;;;5011577;28;20058;-56
2023/05/29 01:17:56;;;;;;;16.38;3.55;;;10.40;99.90;;;;;;5028046;28;20566;-57
2023/05/29 01:20:48;;;;;;;17.25;4.13;;;10.40;99.90;;;;;;5029110;28;20059;-55
2023/05/29 01:23:36;;;;;;;20.48;3.58;;;10.40;99.90;;;;;;5024206;28;20053;-56
2023/05/29 01:26:02;;;;;;;23.67;4.13;;;10.50;99.90;;;;;;5028845;28;20042;-55
2023/05/29 01:28:35;;;;;;;20.15;3.53;;;10.70;99.90;;;;;;5029474;28;20041;-56
2023/05/29 01:31:02;;;;;;;16.30;3.58;;;10.50;99.90;;;;;;5027966;28;20033;-57
2023/05/29 01:33:28;;;;;;;14.20;3.63;;;10.50;99.90;;;;;;5029463;28;20046;-56
2023/05/29 01:35:53;;;;;;;16.55;3.53;;;10.40;99.90;;;;;;5028524;28;20120;-56
2023/05/29 01:38:19;;;;;;;20.05;3.90;;;10.50;99.90;;;;;;5028199;28;20556;-56
2023/05/29 01:40:45;;;;;;;19.35;3.83;;;10.50;99.90;;;;;;5028229;28;20053;-56
2023/05/29 01:43:12;;;;;;;21.02;4.18;;;10.50;99.90;;;;;;5028217;28;20041;-56
2023/05/29 01:45:39;;;;;;;19.35;4.13;;;10.40;99.90;;;;;;5010032;28;20599;-57
2023/05/29 01:48:05;;;;;;;22.00;4.15;;;10.40;99.90;;;;;;5028390;28;20068;-57
2023/05/29 01:50:31;;;;;;;14.68;3.63;;;10.40;99.90;;;;;;5027656;28;20412;-56
2023/05/29 01:52:56;;;;;;;22.17;4.10;;;10.40;99.90;;;;;;5029128;28;20052;-56
2023/05/29 01:55:22;;;;;;;21.30;4.00;;;10.40;99.90;;;;;;5028484;28;20527;-56
2023/05/29 01:57:49;;;;;;;19.98;3.88;;;10.50;99.90;;;;;;5029076;28;20609;-56
2023/05/29 02:00:17;;;;;;;15.25;3.65;;;10.40;99.90;;;;;;5028515;28;20045;-56
2023/05/29 02:02:42;;;;;;;15.50;3.53;;;10.40;99.90;;;;;;5028001;28;20116;-56
2023/05/29 02:05:08;;;;;;;17.35;4.43;;;10.40;99.90;;;;;;5028190;28;20140;-56
2023/05/29 02:07:36;;;;;;;19.23;3.38;;;10.40;99.90;;;;;;5028137;28;20038;-56
2023/05/29 02:10:03;;;;;;;17.25;3.53;;;10.30;99.90;;;;;;5027788;28;20374;-57
2023/05/29 02:12:28;;;;;;;18.02;3.88;;;10.30;99.90;;;;;;5028276;28;20080;-56
2023/05/29 02:14:54;;;;;;;19.38;3.42;;;10.30;99.90;;;;;;5028485;28;20053;-56
2023/05/29 02:17:20;;;;;;;12.40;3.08;;;10.30;99.90;;;;;;5027130;28;20047;-56
2023/05/29 02:19:46;;;;;;;18.27;3.75;;;10.40;99.90;;;;;;5028491;28;20049;-56
2023/05/29 02:22:12;;;;;;;18.30;3.25;;;10.30;99.90;;;;;;5027886;28;20072;-55
2023/05/29 02:24:37;;;;;;;17.13;2.97;;;10.30;99.90;;;;;;5028057;28;20395;-56
2023/05/29 02:27:03;;;;;;;18.00;3.45;;;10.30;99.90;;;;;;5027925;28;20042;-55
2023/05/29 02:29:29;;;;;;;16.83;3.70;;;10.20;99.90;;;;;;5027900;28;20566;-56
2023/05/29 02:31:55;;;;;;;17.60;3.50;;;10.20;99.90;;;;;;5009817;28;20057;-58
2023/05/29 02:34:24;;;;;;;14.82;3.53;;;10.30;99.90;;;;;;5027023;28;20619;-56
2023/05/29 02:36:51;;;;;;;14.73;3.20;;;10.30;99.90;;;;;;5027967;28;20423;-56
2023/05/29 02:39:17;;;;;;;14.30;3.20;;;10.30;99.90;;;;;;5026821;28;20081;-56
2023/05/29 02:41:43;;;;;;;15.75;3.58;;;10.20;99.90;;;;;;5008404;28;20092;-56
2023/05/29 02:44:08;;;;;;;17.30;3.28;;;10.20;99.90;;;;;;5026415;28;20041;-56
2023/05/29 02:46:34;;;;;;;15.48;3.17;;;10.20;99.90;;;;;;5026564;28;20045;-56
2023/05/29 02:49:00;;;;;;;14.88;2.85;;;10.20;99.90;;;;;;5027602;28;20069;-56
2023/05/29 02:51:25;;;;;;;15.07;3.10;;;10.20;99.90;;;;;;5027550;28;20538;-57
2023/05/29 02:53:51;;;;;;;15.52;3.47;;;10.20;99.90;;;;;;5027354;28;20049;-57
2023/05/29 02:56:16;;;;;;;16.73;3.17;;;10.30;99.90;;;;;;5027881;28;20515;-57
2023/05/29 02:58:42;;;;;;;18.02;3.67;;;10.10;99.90;;;;;;5026605;28;20488;-59
2023/05/29 03:01:08;;;;;;;16.98;2.92;;;10.40;99.90;;;;;;5026751;28;20041;-56
2023/05/29 03:03:34;;;;;;;17.98;3.67;;;10.10;99.90;;;;;;5026850;28;20041;-55
2023/05/29 03:06:00;;;;;;;13.65;3.30;;;10.10;99.90;;;;;;5027334;28;20049;-57
2023/05/29 03:08:27;;;;;;;12.43;3.10;;;10.30;99.90;;;;;;5027284;28;20132;-56
2023/05/29 03:10:52;;;;;;;13.82;3.00;;;10.10;99.90;;;;;;5026926;28;20061;-56
2023/05/29 03:13:18;;;;;;;19.67;3.55;;;10.30;99.90;;;;;;5027295;28;20091;-55
2023/05/29 03:15:44;;;;;;;17.58;3.50;;;10.10;99.90;;;;;;5025398;28;20056;-55
2023/05/29 03:18:09;;;;;;;14.25;3.53;;;10.10;99.90;;;;;;5027184;28;20141;-55
2023/05/29 03:20:35;;;;;;;16.58;3.67;;;10.20;99.90;;;;;;5027221;28;20053;-56
2023/05/29 03:23:01;;;;;;;15.48;3.30;;;10.10;99.90;;;;;;5025862;28;20073;-56
2023/05/29 03:25:26;;;;;;;16.13;4.18;;;10.10;99.90;;;;;;5026927;28;20122;-56
2023/05/29 03:27:52;;;;;;;14.35;3.47;;;10.10;99.90;;;;;;5027317;28;20691;-56
2023/05/29 03:30:19;;;;;;;18.80;3.42;;;10.10;99.90;;;;;;5025945;28;20056;-55
2023/05/29 03:32:45;;;;;;;15.52;2.88;;;10.10;99.90;;;;;;5026258;28;20077;-58
2023/05/29 03:35:10;;;;;;;13.38;3.28;;;10.10;99.90;;;;;;5026783;28;20126;-58
2023/05/29 03:37:36;;;;;;;14.80;3.30;;;10.10;99.90;;;;;;5026897;28;20038;-58
2023/05/29 03:40:02;;;;;;;12.02;2.72;;;10.10;99.90;;;;;;5025926;28;20463;-57
2023/05/29 03:42:30;;;;;;;13.50;3.00;;;10.10;99.90;;;;;;5026924;28;20415;-55
2023/05/29 03:44:56;;;;;;;13.88;2.92;;;10.10;99.90;;;;;;5026870;28;20638;-57
2023/05/29 03:47:21;;;;;;;12.98;3.00;;;10.10;99.90;;;;;;5025634;28;20065;-55
2023/05/29 03:49:47;;;;;;;11.90;2.80;;;10.20;99.90;;;;;;5026018;28;20057;-55
2023/05/29 03:52:12;;;;;;;13.43;2.90;;;10.20;99.90;;;;;;5026702;28;20121;-56
2023/05/29 03:54:38;;;;;;;19.58;3.47;;;10.40;99.90;;;;;;5027018;28;20049;-57
2023/05/29 03:57:05;;;;;;;16.80;3.55;;;10.20;99.90;;;;;;5026856;28;20041;-57
2023/05/29 03:59:30;;;;;;;12.45;3.13;;;10.20;99.90;;;;;;5026704;28;20041;-55
2023/05/29 04:01:56;;;;;;;13.57;3.53;;;10.30;99.90;;;;;;5007679;28;20532;-56
2023/05/29 04:04:21;;;;;;;13.45;3.10;;;10.30;99.90;;;;;;5025424;28;20044;-57
2023/05/29 04:06:47;;;;;;;14.38;3.03;;;10.30;99.90;;;;;;5025547;28;20045;-56
2023/05/29 04:09:13;;;;;;;14.07;3.25;;;10.40;99.90;;;;;;5026324;28;20037;-56
2023/05/29 04:11:39;;;;;;;19.33;3.25;;;10.40;99.90;;;;;;5026704;28;20057;-56
2023/05/29 04:14:05;;;;;;;11.70;3.20;;;10.40;99.90;;;;;;5025375;28;20103;-56
2023/05/29 04:16:30;;;;;;;17.33;3.40;;;10.80;99.90;;;;;;5025766;28;20415;-56
2023/05/29 04:18:56;;;;;;;18.02;3.33;;;10.40;99.90;;;;;;5026201;28;20063;-56
2023/05/29 04:21:22;;;;;;;15.25;3.30;;;10.40;99.90;;;;;;5025560;28;20077;-56
2023/05/29 04:23:47;;;;;;;16.23;3.45;;;10.50;99.90;;;;;;5026028;28;20124;-56
2023/05/29 04:26:13;;;;;;;14.98;3.40;;;10.40;99.90;;;;;;5025782;28;20125;-56
2023/05/29 04:28:39;;;;;;;16.50;2.83;;;10.50;99.90;;;;;;5026181;28;20046;-56
2023/05/29 04:31:07;;;;;;;18.35;3.92;;;10.50;99.90;;;;;;5006937;28;20120;-56
2023/05/29 04:33:36;;;;;;;13.57;3.38;;;10.50;99.90;;;;;;5025985;28;20041;-56
2023/05/29 04:36:03;;;;;;;12.77;3.15;;;11.00;99.90;;;;;;5025520;28;20065;-56
2023/05/29 04:38:29;;;;;;;13.18;2.95;;;10.60;99.90;;;;;;5025068;28;20048;-56
2023/05/29 04:40:58;;;;;;;17.13;3.60;;;10.70;99.90;;;;;;5025868;28;20053;-57
2023/05/29 04:43:26;;;;;;;15.80;3.17;;;10.80;99.90;;;;;;5025719;28;20053;-56
2023/05/29 04:45:52;;;;;;;17.25;3.47;;;10.80;99.90;;;;;;5024628;28;20096;-55
2023/05/29 04:48:18;;;;;;;18.98;3.92;;;10.90;99.90;;;;;;5026169;28;20049;-57
2023/05/29 04:50:44;;;;;;;20.58;3.25;;;11.00;99.90;;;;;;5025723;28;20099;-57
2023/05/29 04:53:10;;;;;;;19.83;3.58;;;11.20;99.90;;;;;;5008714;28;20476;-56
2023/05/29 04:55:36;;;;;;;19.67;3.10;;;11.30;99.90;;;;;;5025992;28;20379;-56
2023/05/29 04:58:02;;;;;;;17.15;3.53;;;11.40;99.90;;;;;;5025851;28;20099;-56
2023/05/29 05:00:27;;;;;;;18.88;3.45;;;11.50;99.90;;;;;;5025095;28;20072;-57
2023/05/29 05:02:53;;;;;;;18.75;3.80;;;11.60;99.90;;;;;;5025184;28;20420;-56
2023/05/29 05:05:19;;;;;;;14.52;3.53;;;11.60;99.90;;;;;;5025542;28;20045;-58
2023/05/29 05:07:45;;;;;;;16.35;3.25;;;11.70;99.90;;;;;;5025347;28;20499;-56
2023/05/29 05:10:11;;;;;;;19.58;3.47;;;11.80;99.90;;;;;;5026300;28;20088;-56
2023/05/29 05:12:37;;;;;;;13.15;3.63;;;12.20;99.90;;;;;;5025850;28;20187;-56
2023/05/29 05:15:03;;;;;;;14.95;4.05;;;12.10;99.90;;;;;;5025038;28;20506;-56
2023/05/29 05:17:28;;;;;;;15.43;3.53;;;12.20;99.90;;;;;;5025278;28;20033;-56
2023/05/29 05:19:54;;;;;;;19.83;3.60;;;12.20;99.90;;;;;;5025533;28;20111;-56
2023/05/29 05:22:20;;;;;;;14.15;3.47;;;12.30;99.90;;;;;;5025750;28;20049;-55
2023/05/29 05:24:45;;;;;;;12.70;3.55;;;12.50;99.90;;;;;;5025786;28;20045;-56
2023/05/29 05:27:11;;;;;;;18.08;3.63;;;12.60;99.90;;;;;;5028823;28;20723;-56
2023/05/29 05:29:37;;;;;;;18.45;3.47;;;12.80;99.90;;;;;;5028927;28;20072;-56
2023/05/29 05:32:02;;;;;;;15.57;3.40;;;12.90;99.90;;;;;;5027871;28;20448;-56
2023/05/29 05:34:28;;;;;;;17.80;3.75;;;13.00;99.90;;;;;;5028110;28;20504;-55
2023/05/29 05:36:54;;;;;;;15.40;3.67;;;13.10;99.90;;;;;;5028527;28;20521;-55
2023/05/29 05:39:19;;;;;;;18.88;3.80;;;13.10;99.90;;;;;;4994568;28;20046;-55
2023/05/29 05:41:45;;;;;;;16.35;3.75;;;13.30;99.90;;;;;;5028730;28;20053;-55
2023/05/29 05:44:10;;;;;;;15.23;4.05;;;13.50;99.90;;;;;;5028511;28;20385;-56
2023/05/29 05:46:36;;;;;;;15.80;4.25;;;13.70;99.90;;;;;;5027911;28;20045;-56
2023/05/29 05:49:01;;;;;;;18.17;4.50;;;13.70;99.90;;;;;;5010964;28;20045;-54
2023/05/29 05:51:27;;;;;;;19.95;3.85;;;13.90;99.90;;;;;;5010306;28;20081;-56
2023/05/29 05:53:53;;;;;;;13.82;3.50;;;14.00;99.90;;;;;;5028931;28;20120;-57
2023/05/29 05:56:19;;;;;;;15.02;3.80;;;14.20;99.90;;;;;;5028491;28;20498;-57
2023/05/29 05:58:44;;;;;;;18.23;4.30;;;14.50;99.90;;;;;;5029073;28;20133;-57
2023/05/29 06:01:10;;;;;;;17.33;3.92;;;14.60;99.90;;;;;;5027843;28;20140;-56
2023/05/29 06:03:37;;;;;;;17.13;4.38;;;14.20;99.90;;;;;;5011030;28;20053;-56
2023/05/29 06:06:03;;;;;;;15.48;3.95;;;14.00;99.90;;;;;;5028108;28;20045;-56
2023/05/29 06:08:29;;;;;;;17.95;3.70;;;13.80;99.90;;;;;;5028093;28;20047;-56
2023/05/29 06:10:55;;;;;;;15.82;4.13;;;13.90;99.90;;;;;;5027373;28;20060;-57
2023/05/29 06:13:20;;;;;;;23.95;4.38;;;14.10;99.90;;;;;;5028554;28;20602;-56
2023/05/29 06:15:46;;;;;;;18.77;4.30;;;14.30;99.90;;;;;;5027154;28;20048;-57
2023/05/29 06:18:12;;;;;;;17.77;4.10;;;14.40;99.30;;;;;;5028550;28;20041;-56
2023/05/29 06:20:38;;;;;;;16.15;4.05;;;14.50;98.80;;;;;;5028459;28;20050;-56
2023/05/29 06:23:03;;;;;;;18.83;4.18;;;14.60;98.70;;;;;;5010352;28;20063;-56
2023/05/29 06:25:33;;;;;;;19.90;4.00;;;14.90;98.80;;;;;;5028102;28;20064;-56
2023/05/29 06:28:00;;;;;;;17.95;4.10;;;15.10;98.50;;;;;;5027992;28;20053;-56
2023/05/29 06:30:25;;;;;;;15.45;3.88;;;15.10;98.30;;;;;;5026969;28;20045;-56
2023/05/29 06:32:51;;;;;;;21.48;4.43;;;15.10;97.90;;;;;;5027326;28;20045;-56
2023/05/29 06:35:16;;;;;;;14.15;3.67;;;15.20;97.70;;;;;;5028123;28;20041;-57
2023/05/29 06:37:42;;;;;;;18.58;4.47;;;15.20;97.20;;;;;;5027615;28;20037;-56
2023/05/29 06:40:08;;;;;;;18.83;4.15;;;15.30;97.10;;;;;;5027494;28;20481;-56
2023/05/29 06:42:33;;;;;;;17.98;4.03;;;15.30;97.10;;;;;;5027994;28;20064;-55
2023/05/29 06:44:59;;;;;;;14.75;3.65;;;15.30;97.80;;;;;;5026921;28;20068;-56
2023/05/29 06:47:25;;;;;;;14.80;4.32;;;15.10;97.50;;;;;;5027966;28;20048;-56
2023/05/29 06:49:51;;;;;;;22.27;4.28;;;15.00;97.60;;;;;;5027400;28;20061;-56
2023/05/29 06:52:16;;;;;;;17.80;4.03;;;14.90;97.70;;;;;;5028041;28;20131;-57
2023/05/29 06:54:42;;;;;;;20.23;4.05;;;14.80;97.90;;;;;;5009355;28;20045;-56
2023/05/29 06:57:07;;;;;;;19.15;4.63;;;14.80;98.40;;;;;;5026151;28;20269;-55
2023/05/29 06:59:33;;;;;;;16.80;3.78;;;14.60;98.40;;;;;;5026463;28;20142;-56
2023/05/29 07:01:58;;;;;;;16.80;3.85;;;14.50;98.70;;;;;;5026011;28;20056;-55
2023/05/29 07:04:24;;;;;;;21.60;4.32;;;14.50;99.00;;;;;;5027750;28;20492;-55
2023/05/29 07:06:51;;;;;;;21.92;4.55;;;14.50;99.10;;;;;;5009150;28;20139;-56
2023/05/29 07:09:16;;;;;;;17.67;3.83;;;14.60;98.80;;;;;;5027910;28;20045;-57
2023/05/29 07:11:42;;;;;;;24.15;4.05;;;14.60;98.70;;;;;;5026714;28;20053;-56
2023/05/29 07:14:08;;;;;;;17.45;3.70;;;14.80;98.90;;;;;;5026248;28;20539;-59
2023/05/29 07:16:33;;;;;;;18.45;3.67;;;15.10;98.50;;;;;;5026207;28;20155;-56
2023/05/29 07:18:59;;;;;;;16.13;3.30;;;15.30;98.10;;;;;;5027341;28;20095;-55
2023/05/29 07:21:25;;;;;;;17.50;3.83;;;15.50;97.90;;;;;;5026130;28;20415;-56
2023/05/29 07:23:50;;;;;;;17.98;4.15;;;15.30;98.00;;;;;;5009038;28;20037;-56
2023/05/29 07:26:16;;;;;;;15.65;3.67;;;15.10;98.20;;;;;;5026869;28;20049;-56
2023/05/29 07:28:42;;;;;;;19.17;3.97;;;15.00;98.10;;;;;;5026829;28;20362;-56
2023/05/29 07:31:07;;;;;;;17.83;4.10;;;15.30;98.30;;;;;;5025095;28;20096;-56
2023/05/29 07:33:33;;;;;;;18.85;4.68;;;15.50;98.20;;;;;;5027150;28;20129;-56
2023/05/29 07:35:58;;;;;;;17.92;3.42;;;15.70;98.10;;;;;;5026758;28;20049;-56
2023/05/29 07:38:24;;;;;;;15.30;3.47;;;15.90;97.40;;;;;;5026188;28;20117;-55
2023/05/29 07:40:49;;;;;;;16.35;3.90;;;15.90;97.80;;;;;;5026787;28;20468;-52
2023/05/29 07:43:15;;;;;;;15.13;3.70;;;16.30;97.60;;;;;;5026407;28;20512;-53
2023/05/29 07:45:40;;;;;;;14.40;3.65;;;16.40;97.30;;;;;;5025977;28;20052;-55
2023/05/29 07:48:06;;;;;;;16.55;4.25;;;16.40;97.00;;;;;;5025593;28;20116;-56
2023/05/29 07:50:32;;;;;;;18.10;3.55;;;16.20;96.40;;;;;;5026146;28;20050;-57
2023/05/29 07:52:57;;;;;;;15.80;3.83;;;16.10;96.40;;;;;;5025051;28;20136;-49
2023/05/29 07:55:23;;;;;;;14.63;3.63;;;15.90;96.40;;;;;;5023955;28;20044;-53
2023/05/29 07:57:48;;;;;;;14.10;3.30;;;16.00;96.80;;;;;;5024149;28;20033;-55
2023/05/29 08:00:15;;;;;;;16.90;4.00;;;16.00;96.80;;;;;;5023300;28;20455;-54
2023/05/29 08:02:42;;;;;;;18.27;3.63;;;16.00;96.90;;;;;;5024238;28;20368;-54
2023/05/29 08:05:08;;;;;;;14.38;3.80;;;16.10;96.70;;;;;;5024142;28;20049;-51
2023/05/29 08:07:35;;;;;;;17.77;4.13;;;16.10;96.50;;;;;;5024182;28;20037;-51
2023/05/29 08:10:00;;;;;;;18.65;3.88;;;16.40;96.80;;;;;;5023857;28;20091;-55
2023/05/29 08:12:26;;;;;;;13.88;3.42;;;16.50;96.30;;;;;;5023413;28;20053;-55
2023/05/29 08:14:51;;;;;;;13.27;3.67;;;16.40;95.90;;;;;;5023543;28;20515;-57
2023/05/29 08:17:17;;;;;;;10.85;3.50;;;16.60;96.00;;;;;;5024042;28;20059;-56
2023/05/29 08:19:42;;;;;;;15.85;3.80;;;16.30;95.90;;;;;;5024749;28;20059;-56
2023/05/29 08:22:13;;;;;;;13.90;3.67;;;16.50;95.80;;;;;;5024893;28;20041;-55
2023/05/29 08:24:39;;;;;;;15.48;3.83;;;16.40;95.90;;;;;;5023535;28;20041;-56
2023/05/29 08:27:05;;;;;;;11.70;3.45;;;16.30;95.90;;;;;;5023862;28;20052;-55
2023/05/29 08:29:30;;;;;;;13.73;3.40;;;16.30;95.90;;;;;;5022331;28;20157;-56
2023/05/29 08:31:56;;;;;;;16.27;3.75;;;16.30;96.10;;;;;;5023267;28;20046;-56
2023/05/29 08:34:21;;;;;;;14.20;3.78;;;16.40;96.30;;;;;;5006239;28;20077;-56
2023/05/29 08:36:48;;;;;;;18.15;3.60;;;16.40;96.10;;;;;;5022917;28;20473;-55
2023/05/29 08:39:14;;;;;;;14.75;3.13;;;16.30;96.10;;;;;;5023347;28;20619;-55
2023/05/29 08:42:01;;;;;;;24.02;4.07;;;16.40;96.20;;;;;;5023160;28;20121;-56
2023/05/29 08:44:31;;;;;;;16.05;3.47;;;16.30;96.10;;;;;;5004507;28;20103;-55
2023/05/29 08:47:00;;;;;;;18.27;3.50;;;16.50;96.00;;;;;;5023525;28;20081;-56
2023/05/29 08:49:29;;;;;;;15.70;3.72;;;16.30;96.40;;;;;;5023026;28;20366;-56
2023/05/29 08:52:10;;;;;;;16.38;4.30;;;16.30;96.30;;;;;;5023320;28;20038;-56
2023/05/29 08:54:36;;;;;;;20.75;3.90;;;16.30;96.20;;;;;;5023324;28;20396;-55
2023/05/29 08:57:03;;;;;;;17.30;3.28;;;16.20;96.30;;;;;;5022941;28;20033;-55
2023/05/29 08:59:30;;;;;;;17.23;3.50;;;16.20;96.40;;;;;;5022641;28;20033;-55
2023/05/29 09:01:56;;;;;;;23.05;4.53;;;16.30;96.10;;;;;;5027297;28;20045;-56
2023/05/29 09:04:22;;;;;;;19.60;4.10;;;16.20;96.20;;;;;;5026717;28;20037;-55
2023/05/29 09:06:49;;;;;;;19.48;4.35;;;16.20;96.30;;;;;;5026851;28;20385;-55
2023/05/29 09:09:16;;;;;;;12.57;3.45;;;16.10;96.40;;;;;;5027168;28;20365;-56
2023/05/29 09:11:41;;;;;;;19.27;4.18;;;16.20;96.20;;;;;;5026506;28;20057;-55
2023/05/29 09:14:32;;;;;;;14.85;4.20;;;16.40;96.30;;;;;;5009167;28;20056;-55
2023/05/29 09:16:57;;;;;;;15.40;3.53;;;16.60;96.40;;;;;;5026707;28;20259;-56
2023/05/29 09:19:23;;;;;;;18.65;4.07;;;16.70;95.80;;;;;;5026793;28;20045;-55
2023/05/29 09:21:48;;;;;;;14.32;3.33;;;16.90;95.50;;;;;;5026560;28;20396;-53
2023/05/29 09:24:14;;;;;;;22.90;4.57;;;16.90;95.60;;;;;;5026471;28;20086;-56
2023/05/29 09:26:49;;;;;;;12.55;3.35;;;17.10;95.50;;;;;;5026278;28;20045;-55
2023/05/29 09:29:15;;;;;;;13.05;3.17;;;17.20;94.50;;;;;;5025942;28;20280;-55
2023/05/29 09:31:49;;;;;;;14.00;3.40;;;17.30;95.10;;;;;;5026439;28;20409;-55
2023/05/29 09:34:15;;;;;;;13.35;3.78;;;17.30;94.90;;;;;;5026592;28;20049;-56
2023/05/29 09:36:40;;;;;;;17.00;3.50;;;17.30;95.10;;;;;;5026842;28;20041;-55
2023/05/29 09:39:09;;;;;;;14.15;3.45;;;17.40;95.20;;;;;;5026584;28;20142;-55
2023/05/29 09:41:44;;;;;;;19.17;3.72;;;17.60;95.00;;;;;;5025872;28;20065;-56
2023/05/29 09:44:14;;;;;;;14.23;3.53;;;17.60;94.40;;;;;;5026465;28;20082;-55
2023/05/29 09:46:43;;;;;;;13.68;3.80;;;17.80;94.80;;;;;;5025845;28;20041;-56
2023/05/29 09:49:12;;;;;;;14.88;3.10;;;17.80;94.50;;;;;;5026453;28;20034;-56
2023/05/29 09:51:39;;;;;;;12.43;3.58;;;17.80;94.30;;;;;;5026035;28;20080;-55
2023/05/29 09:54:17;;;;;;;10.30;2.72;;;17.80;94.70;;;;;;5025820;28;20033;-56
2023/05/29 09:56:44;;;;;;;16.95;3.58;;;17.80;94.10;;;;;;5026024;28;20052;-56
2023/05/29 09:59:11;;;;;;;15.00;3.30;;;17.80;94.60;;;;;;5025251;28;20172;-56
2023/05/29 10:01:43;;;;;;;16.25;3.45;;;17.90;94.60;;;;;;5025528;28;20053;-54
2023/05/29 10:04:13;;;;;;;13.55;3.30;;;18.10;94.00;;;;;;5026003;28;20459;-55
2023/05/29 10:06:45;;;;;;;13.93;3.22;;;18.10;94.30;;;;;;5026033;28;20053;-54
2023/05/29 10:09:14;;;;;;;14.32;3.60;;;18.10;94.20;;;;;;5026036;28;20068;-54
2023/05/29 10:11:46;;;;;;;17.77;3.25;;;18.20;94.20;;;;;;5007093;28;20497;-55
2023/05/29 10:14:17;;;;;;;9.25;2.53;;;18.30;94.20;;;;;;5024699;28;20077;-55
2023/05/29 10:16:45;;;;;;;16.00;3.28;;;18.30;94.10;;;;;;5026274;28;20042;-55
2023/05/29 10:19:15;;;;;;;10.30;2.90;;;18.30;94.40;;;;;;5025509;28;20042;-55
2023/05/29 10:21:42;;;;;;;13.52;3.28;;;18.30;94.00;;;;;;5025151;28;20045;-55
2023/05/29 10:24:10;;;;;;;18.17;4.13;;;18.40;93.50;;;;;;5025575;28;20222;-55
2023/05/29 10:26:39;;;;;;;12.65;3.05;;;18.30;93.50;;;;;;5025612;28;20034;-55
2023/05/29 10:29:34;;;;;;;14.10;3.60;;;18.40;93.60;;;;;;5024477;28;20457;-55
2023/05/29 10:32:12;;;;;;;;;;;18.40;93.50;;;;;;5026388;28;20060;-53
2023/05/29 10:34:56;;;;;;;13.00;3.25;;;18.40;93.00;;;;;;5025530;28;19960;-55
2023/05/29 10:37:35;;;;;;;12.40;3.13;;;18.40;93.50;;;;;;5025423;28;20152;-55
2023/05/29 10:40:12;;;;;;;16.83;3.60;;;18.50;92.90;;;;;;5025800;28;20046;-54
2023/05/29 10:42:49;;;;;;;15.40;3.10;;;18.50;93.10;;;;;;5025354;28;20128;-56
2023/05/29 10:45:32;;;;;;;12.80;3.35;;;18.60;93.20;;;;;;5024283;28;20041;-55
2023/05/29 10:48:07;;;;;;;12.23;2.80;;;18.70;93.10;;;;;;5025584;28;20091;-55
2023/05/29 10:50:42;;;;;;;13.95;3.33;;;18.80;92.90;;;;;;5007279;28;20103;-55
2023/05/29 10:53:11;;;;;;;13.52;2.47;;;18.50;92.60;;;;;;5025192;28;20057;-55
2023/05/29 10:55:38;;;;;;;11.27;3.00;;;18.40;92.70;;;;;;5024524;28;20454;-55
2023/05/29 10:58:19;;;;;;;13.40;3.10;;;18.40;93.80;;;;;;5025330;28;20037;-54
2023/05/29 11:00:48;;;;;;;17.10;3.53;;;18.60;93.40;;;;;;5024058;28;20099;-55
2023/05/29 11:03:30;;;;;;;13.45;3.22;;;18.70;93.80;;;;;;5007604;28;20054;-55
2023/05/29 11:06:05;;;;;;;9.82;3.47;;;18.80;93.10;;;;;;5025263;28;20086;-55
2023/05/29 11:08:46;;;;;;;13.32;3.33;;;18.90;92.40;;;;;;5025162;28;20564;-55
2023/05/29 11:11:12;;;;;;;14.32;3.38;;;18.90;92.60;;;;;;5024640;28;20144;-55
2023/05/29 11:13:40;;;;;;;11.10;3.00;;;18.90;93.00;;;;;;5024103;28;20057;-55
2023/05/29 11:16:18;;;;;;;15.48;3.20;;;18.80;92.80;;;;;;5023816;28;20211;-55
2023/05/29 11:18:46;;;;;;;14.00;2.95;;;18.80;92.30;;;;;;5024260;28;20111;-54
2023/05/29 11:21:30;;;;;;;11.85;2.83;;;18.90;92.90;;;;;;5024853;28;20045;-55
2023/05/29 11:23:58;;;;;;;14.77;3.30;;;19.00;91.60;;;;;;5024262;28;20054;-55
2023/05/29 11:26:27;;;;;;;14.65;2.97;;;19.00;92.10;;;;;;5006174;28;20041;-55
2023/05/29 11:28:53;;;;;;;10.63;3.10;;;19.20;92.60;;;;;;5024226;28;20052;-56
2023/05/29 11:31:22;;;;;;;18.50;3.42;;;19.30;92.50;;;;;;5024264;28;20849;-55
2023/05/29 11:33:50;;;;;;;15.90;3.20;;;19.30;92.40;;;;;;5023895;28;20385;-55
2023/05/29 11:36:19;;;;;;;12.27;3.17;;;19.30;92.80;;;;;;5024356;28;20171;-55
2023/05/29 11:38:45;;;;;;;13.25;2.80;;;19.30;92.50;;;;;;5024283;28;20052;-55
2023/05/29 11:41:10;;;;;;;13.32;2.92;;;19.30;92.30;;;;;;5024129;28;20041;-56
2023/05/29 11:43:36;;;;;;;12.25;2.85;;;19.20;92.10;;;;;;5024278;28;20380;-55
2023/05/29 11:46:02;;;;;;;12.70;2.97;;;19.10;92.30;;;;;;5023903;28;20037;-55
2023/05/29 11:48:28;;;;;;;12.27;3.42;;;19.10;92.50;;;;;;5023529;28;20042;-55
2023/05/29 11:50:53;;;;;;;12.43;3.10;;;19.10;92.90;;;;;;5024114;28;20048;-54
2023/05/29 11:53:19;;;;;;;14.23;3.15;;;19.20;92.70;;;;;;5023860;28;20615;-55
2023/05/29 11:55:45;;;;;;;11.65;2.95;;;19.40;92.10;;;;;;5024046;28;20128;-55
2023/05/29 11:58:10;;;;;;;15.13;2.95;;;19.20;92.20;;;;;;5023630;28;20069;-55
2023/05/29 12:00:38;;;;;;;11.93;2.88;;;19.20;92.10;;;;;;5023187;28;20049;-56
2023/05/29 12:03:05;;;;;;;11.48;3.15;;;19.20;91.90;;;;;;5024165;28;20076;-55
2023/05/29 12:05:46;;;;;;;10.85;2.70;;;19.00;92.00;;;;;;5023582;28;20053;-55
2023/05/29 12:08:12;;;;;;;15.45;3.50;;;19.20;92.10;;;;;;5023948;28;20119;-55
2023/05/29 12:10:37;;;;;;;14.73;3.20;;;19.20;92.20;;;;;;5023451;28;20504;-54
2023/05/29 12:13:03;;;;;;;16.60;2.90;;;19.20;91.90;;;;;;5023850;28;20120;-54
2023/05/29 12:15:28;;;;;;;13.05;3.40;;;19.10;91.80;;;;;;5005697;28;20045;-55
2023/05/29 12:17:55;;;;;;;15.38;3.20;;;19.00;92.40;;;;;;5023535;28;20106;-54
2023/05/29 12:20:27;;;;;;;10.70;3.00;;;19.10;92.60;;;;;;5023019;28;20041;-54
2023/05/29 12:22:58;;;;;;;12.55;3.00;;;19.30;91.80;;;;;;5023521;28;20034;-55
2023/05/29 12:25:24;;;;;;;17.58;3.67;;;19.30;92.20;;;;;;5023686;28;20038;-54
2023/05/29 12:27:50;;;;;;;14.93;3.25;;;19.30;92.40;;;;;;5005364;28;20078;-55
2023/05/29 12:30:18;;;;;;;12.63;2.97;;;19.30;92.30;;;;;;5022571;28;20476;-55
2023/05/29 12:32:47;;;;;;;9.85;2.65;;;19.40;91.80;;;;;;5023299;28;20041;-54
2023/05/29 12:35:18;;;;;;;12.82;3.30;;;19.40;91.40;;;;;;5022316;28;20041;-54
2023/05/29 12:37:49;;;;;;;12.60;2.70;;;19.40;91.70;;;;;;5023352;28;20057;-57
2023/05/29 12:40:29;;;;;;;13.75;3.20;;;19.50;91.70;;;;;;5023007;28;20299;-53